Time;durP1;ratioP1;P1;durP2;ratioP2;P2;SDS_P1;SDS_P2;PMS_P1;PMS_P2;Temp;Humidity;BMP_temperature;BMP_pressure;BME280_temperature;BME280_humidity;BME280_pressure;Samples;Min_cycle;Max_cycle;Signal;HPM_P1;HPM_P2
2022/03/24 00:01:46;;;;;;;51.75;24.20;;;9.80;99.90;;;;;;5005450;28;20030;-32
2022/03/24 00:04:12;;;;;;;55.55;23.52;;;9.80;99.90;;;;;;5005042;28;20080;-38
2022/03/24 00:06:37;;;;;;;52.35;23.00;;;9.70;99.90;;;;;;4999723;28;20565;-37
2022/03/24 00:09:04;;;;;;;55.30;23.33;;;9.80;99.90;;;;;;5006771;28;20109;-34
2022/03/24 00:11:30;;;;;;;50.83;22.60;;;9.70;99.90;;;;;;5008708;28;20030;-38
2022/03/24 00:13:56;;;;;;;57.63;24.08;;;9.70;99.90;;;;;;5004627;28;20041;-38
2022/03/24 00:16:21;;;;;;;59.97;23.67;;;9.70;99.90;;;;;;5005583;28;20034;-31
2022/03/24 00:18:47;;;;;;;55.50;23.80;;;9.60;99.90;;;;;;5004473;28;20026;-34
2022/03/24 00:21:16;;;;;;;51.28;22.92;;;9.60;99.90;;;;;;4985827;28;20030;-30
2022/03/24 00:23:42;;;;;;;62.25;25.40;;;9.60;99.90;;;;;;5004340;28;20532;-40
2022/03/24 00:26:07;;;;;;;60.33;24.58;;;9.50;99.90;;;;;;5007117;28;20026;-31
2022/03/24 00:28:33;;;;;;;62.80;25.05;;;9.50;99.90;;;;;;5012485;28;20084;-34
2022/03/24 00:30:59;;;;;;;54.10;22.48;;;9.40;99.90;;;;;;5013599;28;20069;-33
2022/03/24 00:33:25;;;;;;;50.88;22.63;;;9.40;99.90;;;;;;5015145;28;20029;-31
2022/03/24 00:35:51;;;;;;;47.67;23.10;;;9.40;99.90;;;;;;5015548;28;20026;-33
2022/03/24 00:38:16;;;;;;;53.20;22.00;;;9.30;99.90;;;;;;5016180;28;20033;-33
2022/03/24 00:40:43;;;;;;;58.50;22.90;;;9.30;99.90;;;;;;5012340;28;20029;-34
2022/03/24 00:43:10;;;;;;;53.60;22.95;;;9.30;99.90;;;;;;5011615;28;20031;-32
2022/03/24 00:45:36;;;;;;;53.25;22.52;;;9.20;99.90;;;;;;4998315;28;20482;-31
2022/03/24 00:48:02;;;;;;;52.63;22.38;;;9.20;99.90;;;;;;5016464;28;20030;-32
2022/03/24 00:50:28;;;;;;;52.47;21.58;;;9.10;99.90;;;;;;5016732;28;20491;-30
2022/03/24 00:52:54;;;;;;;55.67;22.27;;;9.10;99.90;;;;;;5015663;28;20026;-31
2022/03/24 00:55:20;;;;;;;59.05;21.88;;;9.00;99.90;;;;;;4993538;28;20492;-31
2022/03/24 00:57:51;;;;;;;52.10;21.67;;;9.00;99.90;;;;;;5014604;28;20032;-31
2022/03/24 01:00:20;;;;;;;51.03;20.85;;;8.90;99.90;;;;;;5014956;28;20032;-32
2022/03/24 01:02:48;;;;;;;56.28;22.60;;;8.90;99.90;;;;;;5016108;28;20530;-49
2022/03/24 01:07:59;;;;;;;57.08;21.33;;;8.90;99.90;;;;;;5016234;28;20064;-32
2022/03/24 01:10:25;;;;;;;52.95;23.25;;;8.90;99.90;;;;;;5015289;28;20030;-35
2022/03/24 01:12:51;;;;;;;54.10;22.30;;;8.80;99.90;;;;;;5015938;28;20037;-42
2022/03/24 01:15:20;;;;;;;54.17;22.15;;;8.80;99.90;;;;;;5016163;28;20101;-34
2022/03/24 01:17:47;;;;;;;52.05;21.10;;;8.80;99.90;;;;;;5015993;28;20029;-34
2022/03/24 01:20:14;;;;;;;50.60;22.48;;;8.70;99.90;;;;;;4989122;28;20022;-32
2022/03/24 01:22:40;;;;;;;57.55;22.50;;;8.70;99.90;;;;;;5011019;28;20033;-33
2022/03/24 01:25:07;;;;;;;54.10;21.25;;;8.70;99.90;;;;;;5012860;28;20046;-30
2022/03/24 01:27:34;;;;;;;48.75;22.38;;;8.60;99.90;;;;;;5004752;28;20034;-31
2022/03/24 01:30:00;;;;;;;53.95;22.08;;;8.60;99.90;;;;;;5011456;28;20140;-33
2022/03/24 01:32:27;;;;;;;50.10;22.05;;;8.60;99.90;;;;;;5015833;28;20541;-30
2022/03/24 01:34:53;;;;;;;54.22;22.08;;;8.60;99.90;;;;;;5015764;28;20072;-31
2022/03/24 01:37:19;;;;;;;57.22;21.88;;;8.50;99.90;;;;;;5015742;28;20135;-32
2022/03/24 01:39:45;;;;;;;57.83;21.40;;;8.50;99.90;;;;;;5015160;28;20478;-30
2022/03/24 01:42:11;;;;;;;49.65;21.67;;;8.50;99.90;;;;;;5015075;28;20033;-31
2022/03/24 01:44:38;;;;;;;55.25;22.70;;;8.50;99.90;;;;;;5015737;28;20030;-30
2022/03/24 01:47:11;;;;;;;49.97;23.08;;;8.50;99.90;;;;;;5015275;28;20029;-35
2022/03/24 01:49:39;;;;;;;55.25;21.20;;;8.60;99.90;;;;;;4996039;28;20479;-33
2022/03/24 01:52:07;;;;;;;;;;;8.60;99.90;;;;;;5012288;28;20081;-33
2022/03/24 01:54:34;;;;;;;54.08;19.98;;;8.60;99.90;;;;;;5015410;28;19909;-31
2022/03/24 01:57:00;;;;;;;51.22;22.65;;;8.50;99.90;;;;;;5015363;28;20485;-37
2022/03/24 01:59:25;;;;;;;55.38;21.38;;;8.40;99.90;;;;;;5015381;28;20485;-38
2022/03/24 02:01:52;;;;;;;55.05;20.52;;;8.40;99.90;;;;;;5015230;28;20080;-30
2022/03/24 02:04:37;;;;;;;48.40;22.40;;;8.40;99.90;;;;;;5014407;28;20057;-30
2022/03/24 02:07:03;;;;;;;56.25;22.10;;;8.40;99.90;;;;;;5007684;28;20508;-30
2022/03/24 02:09:30;;;;;;;44.28;19.52;;;8.30;99.90;;;;;;5014253;28;20108;-30
2022/03/24 02:11:55;;;;;;;52.90;21.60;;;8.30;99.90;;;;;;5014277;28;20478;-32
2022/03/24 02:14:21;;;;;;;47.58;21.00;;;8.30;99.90;;;;;;5007146;28;20056;-32
2022/03/24 02:16:48;;;;;;;45.13;21.00;;;8.20;99.90;;;;;;5014105;28;20053;-29
2022/03/24 02:19:21;;;;;;;49.80;21.58;;;8.10;99.90;;;;;;5014494;28;20037;-32
2022/03/24 02:21:48;;;;;;;53.58;22.35;;;8.10;99.90;;;;;;5013388;28;20566;-39
2022/03/24 02:24:16;;;;;;;56.05;20.17;;;8.10;99.90;;;;;;5002179;28;20030;-29
2022/03/24 02:26:44;;;;;;;65.93;22.58;;;8.00;99.90;;;;;;5013793;28;20033;-30
2022/03/24 02:29:11;;;;;;;51.00;21.33;;;8.00;99.90;;;;;;5014940;28;20061;-44
2022/03/24 02:31:38;;;;;;;48.72;19.77;;;8.00;99.90;;;;;;5014371;28;20175;-29
2022/03/24 02:36:53;;;;;;;44.70;19.77;;;7.90;99.90;;;;;;5009623;28;20149;-34
2022/03/24 02:39:19;;;;;;;49.78;21.02;;;7.90;99.90;;;;;;5014165;28;20076;-47
2022/03/24 02:41:47;;;;;;;54.53;21.73;;;7.80;99.90;;;;;;5014104;28;20367;-47
2022/03/24 02:44:17;;;;;;;53.20;21.00;;;7.80;99.90;;;;;;5014208;28;20477;-37
2022/03/24 02:46:47;;;;;;;51.03;22.15;;;7.80;99.90;;;;;;4995524;28;20640;-37
2022/03/24 02:49:17;;;;;;;52.05;20.85;;;7.80;99.90;;;;;;5014449;28;20037;-38
2022/03/24 02:51:42;;;;;;;49.25;20.73;;;7.70;99.90;;;;;;5014098;28;20543;-38
2022/03/24 02:54:09;;;;;;;53.17;21.27;;;7.70;99.90;;;;;;5013458;28;20022;-37
2022/03/24 02:56:35;;;;;;;49.25;21.17;;;7.70;99.90;;;;;;5013853;28;20022;-38
2022/03/24 02:59:01;;;;;;;51.08;20.85;;;7.70;99.90;;;;;;5013699;28;20025;-38
2022/03/24 03:01:27;;;;;;;47.15;19.42;;;7.60;99.90;;;;;;5013488;28;20121;-37
2022/03/24 03:03:53;;;;;;;51.55;19.95;;;7.60;99.90;;;;;;5010978;28;20023;-38
2022/03/24 03:06:20;;;;;;;44.78;19.13;;;7.60;99.90;;;;;;5014042;28;20037;-36
2022/03/24 03:08:49;;;;;;;45.60;18.42;;;7.50;99.90;;;;;;5013974;28;20057;-39
2022/03/24 03:11:16;;;;;;;44.22;18.35;;;7.50;99.90;;;;;;5013633;28;20382;-32
2022/03/24 03:13:43;;;;;;;48.85;20.02;;;7.50;99.90;;;;;;5007870;28;20533;-33
2022/03/24 03:16:09;;;;;;;49.83;21.25;;;7.40;99.90;;;;;;5013529;28;20030;-31
2022/03/24 03:18:34;;;;;;;45.30;18.10;;;7.40;99.90;;;;;;5013342;28;20022;-31
2022/03/24 03:21:00;;;;;;;40.40;18.70;;;7.30;99.90;;;;;;5013614;28;20113;-29
2022/03/24 03:23:27;;;;;;;46.58;19.92;;;7.30;99.90;;;;;;5013236;28;20032;-30
2022/03/24 03:25:53;;;;;;;51.47;20.10;;;7.30;99.90;;;;;;5013316;28;20512;-31
2022/03/24 03:28:18;;;;;;;51.20;19.52;;;7.30;99.90;;;;;;5013409;28;20065;-30
2022/03/24 03:30:44;;;;;;;47.97;20.67;;;7.20;99.90;;;;;;5013496;28;20492;-31
2022/03/24 03:33:10;;;;;;;46.92;18.85;;;7.20;99.90;;;;;;5013200;28;20492;-57
2022/03/24 03:35:37;;;;;;;47.85;20.35;;;7.30;99.90;;;;;;5013399;28;20080;-30
2022/03/24 03:38:03;;;;;;;45.38;18.60;;;7.20;99.90;;;;;;5012655;28;20040;-31
2022/03/24 03:40:29;;;;;;;47.63;19.00;;;7.20;99.90;;;;;;5013352;28;20084;-32
2022/03/24 03:42:55;;;;;;;41.40;18.95;;;7.20;99.90;;;;;;5013200;28;20041;-31
2022/03/24 03:45:21;;;;;;;40.53;17.67;;;7.20;99.90;;;;;;5012228;28;20029;-30
2022/03/24 03:47:47;;;;;;;48.85;17.05;;;7.20;99.90;;;;;;5012775;28;20506;-31
2022/03/24 03:50:12;;;;;;;40.03;18.13;;;7.10;99.90;;;;;;5013610;28;20036;-32
2022/03/24 03:52:39;;;;;;;42.08;16.75;;;7.10;99.90;;;;;;5013206;28;20037;-37
2022/03/24 03:55:06;;;;;;;49.33;18.02;;;7.20;99.90;;;;;;5013434;28;20549;-38
2022/03/24 03:57:31;;;;;;;40.63;17.60;;;7.20;99.90;;;;;;5012592;28;20030;-38
2022/03/24 04:00:52;;;;;;;42.38;17.90;;;7.20;99.90;;;;;;4995362;28;20034;-38
2022/03/24 04:02:43;;;;;;;41.92;16.45;;;7.20;99.90;;;;;;5009914;28;20107;-38
2022/03/24 04:05:08;;;;;;;46.58;18.20;;;7.10;99.90;;;;;;5002125;28;20109;-37
2022/03/24 04:07:34;;;;;;;45.80;18.08;;;7.00;99.90;;;;;;4995250;28;20030;-39
2022/03/24 04:09:59;;;;;;;39.70;17.42;;;7.00;99.90;;;;;;4995307;28;20029;-39
2022/03/24 04:12:25;;;;;;;36.03;16.88;;;6.90;99.90;;;;;;5012705;28;20442;-37
2022/03/24 04:14:51;;;;;;;42.10;18.08;;;6.90;99.90;;;;;;5012195;28;20046;-36
2022/03/24 04:17:18;;;;;;;43.67;18.35;;;6.90;99.90;;;;;;5012738;28;20026;-37
2022/03/24 04:19:44;;;;;;;40.45;17.85;;;6.90;99.90;;;;;;5013140;28;20554;-38
2022/03/24 04:22:09;;;;;;;40.15;16.63;;;6.90;99.90;;;;;;4994746;28;20406;-39
2022/03/24 04:24:35;;;;;;;39.53;16.85;;;6.90;99.90;;;;;;5012784;28;20026;-38
2022/03/24 04:27:00;;;;;;;36.60;16.02;;;6.90;99.90;;;;;;5012857;28;20026;-38
2022/03/24 04:29:26;;;;;;;39.67;16.90;;;6.90;99.90;;;;;;5012359;28;20028;-39
2022/03/24 04:31:51;;;;;;;44.67;17.15;;;6.90;99.90;;;;;;5010994;28;20073;-57
2022/03/24 04:34:17;;;;;;;47.58;17.60;;;6.80;99.90;;;;;;5012612;28;20034;-39
2022/03/24 04:36:43;;;;;;;51.08;18.98;;;6.80;99.90;;;;;;5012533;28;20030;-37
2022/03/24 04:39:08;;;;;;;41.88;17.23;;;6.80;99.90;;;;;;5012402;28;20022;-37
2022/03/24 04:41:34;;;;;;;39.22;16.83;;;6.70;99.90;;;;;;5012789;28;20497;-38
2022/03/24 04:44:01;;;;;;;50.47;17.98;;;6.70;99.90;;;;;;5012383;28;20114;-37
2022/03/24 04:46:27;;;;;;;42.60;17.95;;;6.60;99.90;;;;;;5012665;28;20026;-39
2022/03/24 04:48:52;;;;;;;34.92;16.60;;;6.60;99.90;;;;;;5012184;28;20029;-37
2022/03/24 04:51:18;;;;;;;46.67;18.30;;;6.60;99.90;;;;;;5012569;28;20029;-42
2022/03/24 04:53:43;;;;;;;41.25;16.77;;;6.70;99.90;;;;;;5012156;28;20030;-36
2022/03/24 04:56:10;;;;;;;43.33;17.33;;;6.80;99.90;;;;;;5012620;28;20057;-38
2022/03/24 04:58:37;;;;;;;45.05;17.65;;;6.70;99.90;;;;;;5012308;28;20022;-38
2022/03/24 05:01:05;;;;;;;37.88;17.92;;;6.70;99.90;;;;;;5012119;28;20489;-37
2022/03/24 05:03:30;;;;;;;40.95;18.63;;;6.70;99.90;;;;;;5012483;28;20037;-37
2022/03/24 05:05:56;;;;;;;39.30;17.27;;;6.60;99.90;;;;;;4998565;28;20029;-37
2022/03/24 05:08:22;;;;;;;46.60;17.65;;;6.50;99.90;;;;;;4987285;28;20057;-38
2022/03/24 05:10:47;;;;;;;41.20;18.00;;;6.50;99.90;;;;;;5000208;28;20037;-38
2022/03/24 05:13:13;;;;;;;41.65;18.98;;;6.50;99.90;;;;;;5012088;28;20452;-35
2022/03/24 05:15:38;;;;;;;39.58;16.65;;;6.50;99.90;;;;;;5012683;28;20045;-31
2022/03/24 05:18:05;;;;;;;43.65;18.20;;;6.60;99.90;;;;;;5015865;28;20473;-36
2022/03/24 05:20:30;;;;;;;40.88;17.50;;;6.60;99.90;;;;;;5015129;28;20474;-37
2022/03/24 05:22:56;;;;;;;47.28;17.88;;;6.60;99.90;;;;;;5015837;28;20030;-63
2022/03/24 05:25:22;;;;;;;40.78;16.60;;;6.60;99.90;;;;;;4997950;28;20026;-31
2022/03/24 05:27:47;;;;;;;40.58;17.08;;;6.50;99.90;;;;;;5016056;28;20032;-31
2022/03/24 05:30:13;;;;;;;45.47;16.33;;;6.60;99.90;;;;;;4997555;28;20029;-38
2022/03/24 05:32:42;;;;;;;48.90;16.85;;;6.50;99.90;;;;;;5015819;28;20026;-36
2022/03/24 05:35:08;;;;;;;40.33;16.15;;;6.50;99.90;;;;;;5015584;28;20036;-32
2022/03/24 05:37:34;;;;;;;46.90;18.27;;;6.40;99.90;;;;;;5013532;28;20083;-33
2022/03/24 05:40:00;;;;;;;49.72;19.15;;;6.40;99.90;;;;;;5011161;28;20026;-34
2022/03/24 05:42:27;;;;;;;46.22;19.60;;;6.40;99.90;;;;;;5015640;28;20040;-30
2022/03/24 05:44:52;;;;;;;43.35;16.80;;;6.40;99.90;;;;;;5014980;28;20109;-32
2022/03/24 05:47:18;;;;;;;40.83;18.08;;;6.40;99.90;;;;;;5015139;28;20105;-30
2022/03/24 05:49:44;;;;;;;36.97;16.58;;;6.50;99.90;;;;;;5015371;28;20022;-30
2022/03/24 05:52:11;;;;;;;52.38;18.08;;;6.50;99.90;;;;;;5014878;28;20041;-32
2022/03/24 05:54:37;;;;;;;46.80;18.40;;;6.60;99.90;;;;;;5015371;28;20026;-34
2022/03/24 05:57:03;;;;;;;42.53;18.08;;;6.60;99.90;;;;;;5012437;28;20037;-31
2022/03/24 05:59:29;;;;;;;37.80;17.23;;;6.60;99.90;;;;;;5012706;28;20037;-29
2022/03/24 06:01:55;;;;;;;51.58;17.95;;;6.60;99.90;;;;;;5014954;28;20022;-29
2022/03/24 06:04:23;;;;;;;42.20;17.15;;;6.60;99.90;;;;;;5015215;28;20393;-35
2022/03/24 06:06:53;;;;;;;41.67;17.27;;;6.70;99.90;;;;;;5014706;28;20026;-29
2022/03/24 06:09:20;;;;;;;49.03;17.13;;;6.60;99.90;;;;;;5014551;28;20022;-33
2022/03/24 06:11:47;;;;;;;43.40;17.77;;;6.70;99.90;;;;;;5015186;28;20033;-33
2022/03/24 06:14:13;;;;;;;41.58;16.88;;;6.80;99.90;;;;;;4997153;28;20578;-32
2022/03/24 06:16:40;;;;;;;42.13;18.75;;;6.90;99.90;;;;;;5014376;28;20053;-39
2022/03/24 06:19:07;;;;;;;58.30;20.27;;;6.90;99.90;;;;;;5009507;28;20052;-55
2022/03/24 06:21:33;;;;;;;44.80;16.50;;;6.90;99.90;;;;;;5013857;28;20064;-30
2022/03/24 06:23:59;;;;;;;51.15;18.42;;;7.00;99.90;;;;;;5014738;28;20062;-29
2022/03/24 06:26:24;;;;;;;37.53;17.48;;;7.10;99.90;;;;;;5014309;28;20018;-31
2022/03/24 06:28:52;;;;;;;39.13;18.13;;;7.10;99.90;;;;;;5014754;28;20157;-32
2022/03/24 06:31:18;;;;;;;39.67;18.25;;;7.20;99.90;;;;;;5014496;28;20113;-48
2022/03/24 06:33:44;;;;;;;43.40;18.77;;;7.30;99.90;;;;;;5014228;28;20110;-37
2022/03/24 06:36:09;;;;;;;46.83;18.50;;;7.40;99.90;;;;;;5014487;28;20037;-32
2022/03/24 06:38:36;;;;;;;48.72;19.83;;;7.40;99.90;;;;;;5014287;28;20095;-31
2022/03/24 06:41:05;;;;;;;55.30;20.23;;;7.60;99.90;;;;;;5013863;28;20427;-32
2022/03/24 06:43:31;;;;;;;46.45;18.77;;;7.60;99.90;;;;;;5014362;28;20371;-31
2022/03/24 06:45:57;;;;;;;39.72;18.27;;;7.70;99.90;;;;;;5009833;28;20104;-30
2022/03/24 06:48:23;;;;;;;49.22;20.52;;;7.80;99.90;;;;;;5012581;28;20026;-48
2022/03/24 06:50:49;;;;;;;44.63;18.65;;;7.90;99.90;;;;;;5013431;28;20084;-38
2022/03/24 06:53:15;;;;;;;50.17;20.10;;;8.00;99.90;;;;;;5014044;28;20470;-37
2022/03/24 06:55:41;;;;;;;49.55;20.98;;;8.10;99.90;;;;;;5014013;28;20080;-38
2022/03/24 06:58:07;;;;;;;44.30;19.00;;;8.20;99.90;;;;;;5013473;28;20026;-39
2022/03/24 07:00:32;;;;;;;41.88;18.55;;;8.40;99.90;;;;;;5011975;28;20054;-39
2022/03/24 07:02:58;;;;;;;52.60;19.35;;;8.40;99.90;;;;;;5013649;28;20026;-37
2022/03/24 07:05:24;;;;;;;45.83;18.50;;;8.60;99.90;;;;;;5013523;28;20036;-38
2022/03/24 07:07:50;;;;;;;56.78;22.05;;;8.70;99.90;;;;;;4995655;28;20038;-36
2022/03/24 07:10:17;;;;;;;54.88;20.88;;;8.80;99.90;;;;;;4996052;28;20022;-39
2022/03/24 07:12:43;;;;;;;49.45;19.10;;;8.90;99.90;;;;;;5013010;28;20029;-37
2022/03/24 07:15:10;;;;;;;47.33;19.17;;;9.00;99.90;;;;;;5013128;28;20046;-39
2022/03/24 07:17:36;;;;;;;44.10;20.17;;;9.20;99.90;;;;;;5013892;28;20483;-38
2022/03/24 07:20:03;;;;;;;56.85;19.95;;;9.30;99.90;;;;;;5013392;28;20033;-37
2022/03/24 07:22:36;;;;;;;44.88;19.77;;;9.50;99.90;;;;;;5013595;28;20504;-32
2022/03/24 07:25:03;;;;;;;49.47;18.10;;;9.60;99.90;;;;;;5013479;28;20529;-29
2022/03/24 07:27:28;;;;;;;49.05;22.35;;;9.70;99.90;;;;;;5012966;28;20014;-30
2022/03/24 07:29:54;;;;;;;39.30;17.52;;;9.90;99.90;;;;;;5013441;28;20021;-32
2022/03/24 07:32:20;;;;;;;51.30;19.20;;;10.00;99.90;;;;;;5005097;28;20034;-31
2022/03/24 07:34:46;;;;;;;44.83;17.52;;;10.10;99.90;;;;;;5003431;28;20030;-31
2022/03/24 07:37:12;;;;;;;41.55;17.08;;;10.30;99.90;;;;;;5005754;28;20080;-31
2022/03/24 07:39:39;;;;;;;39.92;18.35;;;10.30;99.90;;;;;;5011288;28;20048;-31
2022/03/24 07:42:05;;;;;;;55.38;19.40;;;10.50;99.90;;;;;;5012896;28;20080;-30
2022/03/24 07:44:31;;;;;;;46.85;19.05;;;10.60;99.90;;;;;;5013427;28;20033;-31
2022/03/24 07:46:57;;;;;;;52.45;19.05;;;10.80;99.90;;;;;;5008865;28;20026;-42
2022/03/24 07:49:22;;;;;;;51.00;18.42;;;10.90;99.90;;;;;;5013140;28;20100;-30
2022/03/24 07:51:49;;;;;;;43.13;19.63;;;11.00;99.90;;;;;;5011279;28;20132;-33
2022/03/24 07:54:14;;;;;;;43.85;19.23;;;11.10;99.90;;;;;;5004373;28;20109;-33
2022/03/24 07:56:40;;;;;;;55.75;17.42;;;11.30;99.90;;;;;;5001206;28;20065;-31
2022/03/24 07:59:06;;;;;;;45.28;18.35;;;11.50;99.90;;;;;;5013116;28;20076;-30
2022/03/24 08:01:34;;;;;;;37.45;17.40;;;11.60;99.90;;;;;;4994905;28;20517;-32
2022/03/24 08:04:02;;;;;;;;;;;11.70;99.90;;;;;;5012036;28;20470;-34
2022/03/24 08:06:28;;;;;;;34.10;16.27;;;11.80;99.90;;;;;;4993890;28;20414;-31
2022/03/24 08:08:55;;;;;;;36.80;15.43;;;12.00;99.90;;;;;;4994931;28;20080;-44
2022/03/24 08:11:25;;;;;;;38.95;17.08;;;12.10;99.90;;;;;;5012943;28;20026;-30
2022/03/24 08:13:53;;;;;;;40.28;16.33;;;12.20;99.90;;;;;;4994088;28;20052;-32
2022/03/24 08:16:20;;;;;;;39.28;16.42;;;12.30;99.90;;;;;;5012278;28;20482;-29
2022/03/24 08:18:46;;;;;;;38.35;16.15;;;12.50;99.90;;;;;;5010969;28;20026;-31
2022/03/24 08:21:12;;;;;;;35.33;15.70;;;12.60;99.90;;;;;;5012847;28;20025;-30
2022/03/24 08:23:37;;;;;;;37.28;16.08;;;12.70;99.90;;;;;;5012149;28;20484;-34
2022/03/24 08:26:03;;;;;;;30.42;15.45;;;12.90;99.90;;;;;;5012524;28;20034;-30
2022/03/24 08:28:29;;;;;;;39.05;16.02;;;13.00;99.90;;;;;;5012552;28;20025;-31
2022/03/24 08:30:54;;;;;;;37.80;15.80;;;13.10;99.00;;;;;;5011053;28;20057;-31
2022/03/24 08:33:20;;;;;;;34.42;15.20;;;13.20;98.70;;;;;;5011906;28;20157;-32
2022/03/24 08:35:45;;;;;;;38.17;15.32;;;13.30;97.40;;;;;;5010354;28;20025;-30
2022/03/24 08:38:11;;;;;;;40.38;15.23;;;13.50;97.20;;;;;;5012314;28;20426;-46
2022/03/24 08:40:37;;;;;;;40.58;16.13;;;13.60;97.10;;;;;;5012362;28;20022;-38
2022/03/24 08:43:04;;;;;;;39.22;16.02;;;13.80;97.00;;;;;;5012839;28;20030;-39
2022/03/24 08:45:31;;;;;;;48.50;15.67;;;13.90;96.90;;;;;;5011615;28;20026;-36
2022/03/24 08:47:57;;;;;;;36.47;15.65;;;14.10;96.80;;;;;;5012598;28;20512;-37
2022/03/24 08:50:23;;;;;;;35.05;14.60;;;14.30;96.60;;;;;;5000326;28;20046;-38
2022/03/24 08:52:49;;;;;;;30.13;13.77;;;14.40;95.70;;;;;;5013694;28;20535;-42
2022/03/24 08:55:15;;;;;;;28.98;14.85;;;14.60;94.90;;;;;;5015900;28;20108;-40
2022/03/24 08:57:42;;;;;;;34.95;14.63;;;14.80;94.30;;;;;;5015848;28;20389;-38
2022/03/24 09:00:13;;;;;;;31.40;15.05;;;14.90;94.50;;;;;;5016373;28;20486;-38
2022/03/24 09:02:44;;;;;;;24.70;13.02;;;15.10;93.60;;;;;;5014808;28;20478;-38
2022/03/24 09:05:10;;;;;;;29.67;13.15;;;15.20;93.10;;;;;;5015879;28;20079;-38
2022/03/24 09:07:37;;;;;;;28.65;13.88;;;15.30;92.60;;;;;;5010584;28;20101;-49
2022/03/24 09:10:07;;;;;;;22.77;12.40;;;15.40;92.10;;;;;;5014217;28;20390;-37
2022/03/24 09:12:35;;;;;;;26.27;13.50;;;15.60;91.30;;;;;;5015816;28;20057;-37
2022/03/24 09:15:05;;;;;;;;;;;15.60;91.60;;;;;;5013888;28;20121;-30
2022/03/24 09:17:31;;;;;;;31.10;14.35;;;15.80;91.30;;;;;;4997734;28;19912;-31
2022/03/24 09:19:56;;;;;;;25.65;13.60;;;15.80;90.60;;;;;;5013929;28;20545;-31
2022/03/24 09:22:22;;;;;;;44.47;14.15;;;15.90;90.90;;;;;;5013996;28;20544;-33
2022/03/24 09:24:47;;;;;;;23.85;13.10;;;16.00;90.60;;;;;;5008665;28;20117;-31
2022/03/24 09:27:13;;;;;;;30.95;14.18;;;16.10;90.30;;;;;;5010610;28;20453;-29
2022/03/24 09:29:39;;;;;;;24.73;13.30;;;16.20;90.00;;;;;;5001379;28;20030;-31
2022/03/24 09:32:09;;;;;;;27.33;12.95;;;16.30;90.50;;;;;;5007500;28;20045;-31
2022/03/24 09:34:34;;;;;;;24.52;13.55;;;16.40;89.60;;;;;;5015506;28;20435;-30
2022/03/24 09:37:00;;;;;;;27.05;13.90;;;16.50;89.00;;;;;;5007294;28;20021;-47
2022/03/24 09:39:25;;;;;;;24.75;12.73;;;16.60;87.50;;;;;;5015353;28;20064;-38
2022/03/24 09:41:53;;;;;;;21.00;11.90;;;16.70;85.30;;;;;;5015507;28;20092;-39
2022/03/24 09:44:19;;;;;;;19.95;11.68;;;16.80;84.10;;;;;;5008940;28;20493;-38
2022/03/24 09:46:45;;;;;;;24.10;11.73;;;16.90;84.00;;;;;;5014202;28;20026;-38
2022/03/24 09:49:11;;;;;;;19.67;11.77;;;16.90;83.40;;;;;;5010295;28;20037;-38
2022/03/24 09:51:43;;;;;;;20.95;12.60;;;17.00;82.20;;;;;;5009464;28;20487;-39
2022/03/24 09:54:11;;;;;;;24.35;11.70;;;17.10;81.30;;;;;;5013130;28;20036;-40
2022/03/24 09:56:38;;;;;;;20.65;12.60;;;17.10;80.10;;;;;;5015197;28;20079;-39
2022/03/24 09:59:05;;;;;;;22.23;13.02;;;17.20;80.60;;;;;;4996274;28;20048;-38
2022/03/24 10:01:31;;;;;;;21.50;12.63;;;17.20;82.70;;;;;;5013795;28;20022;-38
2022/03/24 10:04:18;;;;;;;22.65;13.35;;;17.30;82.80;;;;;;5014301;28;20393;-43
2022/03/24 10:07:04;;;;;;;24.52;13.07;;;17.30;83.30;;;;;;4995644;28;20100;-38
2022/03/24 10:09:42;;;;;;;26.52;13.05;;;17.50;81.80;;;;;;5007221;28;20481;-38
2022/03/24 10:12:15;;;;;;;29.38;13.70;;;17.60;81.90;;;;;;5013769;28;20492;-30
2022/03/24 10:14:42;;;;;;;28.33;14.02;;;17.60;81.70;;;;;;4997360;28;20508;-31
2022/03/24 10:17:10;;;;;;;28.40;14.55;;;17.70;82.90;;;;;;5014987;28;20053;-29
2022/03/24 10:19:36;;;;;;;27.65;14.57;;;17.70;82.10;;;;;;4993798;28;20109;-30
2022/03/24 10:22:10;;;;;;;24.83;13.27;;;17.70;82.10;;;;;;5013574;28;20378;-41
2022/03/24 10:24:43;;;;;;;26.35;13.07;;;17.70;83.10;;;;;;5014810;28;20029;-65
2022/03/24 10:27:11;;;;;;;23.95;12.63;;;17.90;81.70;;;;;;4996901;28;20038;-64
2022/03/24 10:29:37;;;;;;;25.85;14.57;;;18.00;81.70;;;;;;4981286;28;20010;-39
2022/03/24 10:32:15;;;;;;;26.35;13.13;;;18.20;80.90;;;;;;4993740;28;20494;-38
2022/03/24 10:34:43;;;;;;;26.38;13.02;;;18.30;82.10;;;;;;4996625;28;20596;-34
2022/03/24 10:37:12;;;;;;;31.75;14.63;;;18.40;81.20;;;;;;5005858;28;20042;-34
2022/03/24 10:39:38;;;;;;;33.80;14.05;;;18.50;79.70;;;;;;5014084;28;20121;-51
2022/03/24 10:42:12;;;;;;;22.70;13.48;;;18.50;78.40;;;;;;5014197;28;20018;-38
2022/03/24 10:45:04;;;;;;;34.90;14.55;;;18.50;79.00;;;;;;5012951;28;20044;-40
2022/03/24 10:47:40;;;;;;;34.63;15.55;;;18.60;81.00;;;;;;5010840;28;20121;-38
2022/03/24 10:50:39;;;;;;;33.35;15.30;;;18.50;81.20;;;;;;5014173;28;20025;-39
2022/03/24 10:53:11;;;;;;;25.90;14.68;;;18.60;80.90;;;;;;5001250;28;20038;-47
2022/03/24 10:55:53;;;;;;;35.83;14.90;;;18.70;80.20;;;;;;5012009;28;20032;-39
2022/03/24 10:58:22;;;;;;;27.33;14.57;;;19.00;80.20;;;;;;5013631;28;20022;-40
2022/03/24 11:00:50;;;;;;;30.50;16.30;;;19.10;80.30;;;;;;5012594;28;20127;-59
2022/03/24 11:03:16;;;;;;;28.15;14.25;;;19.10;82.20;;;;;;4994622;28;20026;-39
2022/03/24 11:05:42;;;;;;;32.83;15.77;;;19.10;80.90;;;;;;5013767;28;20030;-37
2022/03/24 11:08:08;;;;;;;34.22;15.52;;;19.00;81.40;;;;;;5005657;28;20027;-39
2022/03/24 11:10:44;;;;;;;30.42;15.77;;;18.90;81.40;;;;;;4994403;28;20387;-39
2022/03/24 11:13:13;;;;;;;29.80;15.68;;;18.80;81.00;;;;;;5002204;28;20081;-39
2022/03/24 11:15:40;;;;;;;32.05;15.07;;;18.90;81.10;;;;;;4994055;28;20038;-39
2022/03/24 11:18:07;;;;;;;28.80;14.52;;;18.80;80.50;;;;;;5008194;28;20072;-39
2022/03/24 11:20:37;;;;;;;27.25;14.70;;;18.80;80.40;;;;;;5014096;28;20037;-39
2022/03/24 11:23:16;;;;;;;29.52;14.60;;;19.00;79.30;;;;;;5000675;28;20049;-40
2022/03/24 11:25:43;;;;;;;24.45;14.02;;;19.10;80.00;;;;;;5013714;28;20030;-39
2022/03/24 11:28:14;;;;;;;26.58;13.75;;;19.30;79.20;;;;;;5007609;28;20022;-47
2022/03/24 11:30:40;;;;;;;27.25;14.10;;;19.30;78.10;;;;;;5005785;28;20029;-39
2022/03/24 11:33:07;;;;;;;27.23;13.32;;;19.50;79.30;;;;;;5012618;28;20445;-51
2022/03/24 11:35:34;;;;;;;27.25;13.55;;;19.50;78.70;;;;;;5006475;28;20459;-42
2022/03/24 11:38:02;;;;;;;24.25;13.57;;;19.30;79.60;;;;;;4994162;28;20026;-47
2022/03/24 11:40:33;;;;;;;27.33;14.35;;;19.40;78.90;;;;;;4995753;28;20034;-38
2022/03/24 11:43:15;;;;;;;26.45;14.00;;;19.50;78.80;;;;;;5013566;28;20017;-38
2022/03/24 11:45:59;;;;;;;26.75;13.93;;;19.50;79.10;;;;;;5012778;28;20505;-40
2022/03/24 11:48:33;;;;;;;32.80;13.75;;;19.30;78.50;;;;;;5013483;28;20022;-46
2022/03/24 11:51:16;;;;;;;25.48;14.27;;;18.90;79.40;;;;;;4995951;28;20053;-62
2022/03/24 11:53:43;;;;;;;31.80;14.30;;;18.70;80.60;;;;;;5013656;28;20033;-38
2022/03/24 11:56:09;;;;;;;30.48;13.98;;;18.70;80.50;;;;;;5004454;28;20153;-38
2022/03/24 11:59:06;;;;;;;27.77;14.80;;;18.80;80.50;;;;;;4993619;28;20514;-47
2022/03/24 12:01:33;;;;;;;30.13;14.88;;;18.80;80.50;;;;;;4993509;28;20068;-38
2022/03/24 12:04:00;;;;;;;27.23;13.63;;;18.90;79.70;;;;;;4995163;28;20109;-36
2022/03/24 12:06:41;;;;;;;31.02;12.52;;;19.10;79.70;;;;;;5012747;28;20501;-38
2022/03/24 12:09:17;;;;;;;27.83;12.77;;;19.20;82.20;;;;;;4994707;28;20038;-38
2022/03/24 12:11:47;;;;;;;23.15;12.70;;;19.30;81.30;;;;;;5005232;28;20435;-37
2022/03/24 12:14:38;;;;;;;26.35;12.32;;;19.10;80.50;;;;;;4993387;28;20466;-37
2022/03/24 12:17:18;;;;;;;26.20;12.73;;;19.20;81.00;;;;;;4981963;28;20380;-38
2022/03/24 12:20:18;;;;;;;29.17;13.32;;;19.20;80.90;;;;;;4993483;28;20022;-38
2022/03/24 12:22:44;;;;;;;28.88;13.30;;;19.20;80.50;;;;;;5009186;28;20030;-39
2022/03/24 12:25:12;;;;;;;32.03;12.95;;;19.20;81.60;;;;;;5014408;28;20476;-39
2022/03/24 12:28:03;;;;;;;29.45;13.30;;;19.20;82.00;;;;;;5011068;28;20030;-39
2022/03/24 12:31:06;;;;;;;28.67;13.15;;;19.40;82.60;;;;;;5003403;28;20070;-39
2022/03/24 12:33:34;;;;;;;23.13;11.70;;;19.50;80.70;;;;;;4998774;28;20525;-39
2022/03/24 12:36:01;;;;;;;29.00;13.27;;;19.70;82.00;;;;;;5016937;28;20022;-37
2022/03/24 12:38:32;;;;;;;28.50;13.40;;;19.80;81.70;;;;;;5012497;28;20026;-40
2022/03/24 12:41:04;;;;;;;37.20;13.18;;;19.60;81.40;;;;;;5016959;28;20037;-44
2022/03/24 12:43:55;;;;;;;22.00;12.18;;;19.50;80.90;;;;;;5016570;28;20040;-39